Time,TemperatureF,DewpointF,PressureIn,WindDirection,WindDirectionDegrees,WindSpeedMPH,WindSpeedGustMPH,Humidity,HourlyPrecipIn,Conditions,Clouds,dailyrainin,SoftwareType,DateUTC
2013-04-14 00:05:00,56.5,55.9,29.83,East,90,0.0,-999.0,98,-99.99,,,0.00,Acu-Link.com,2013-04-14 04:05:00,
2013-04-14 00:36:00,55.6,55.0,29.84,NNW,337,0.0,-999.0,98,-99.99,,,0.00,Acu-Link.com,2013-04-14 04:36:00,
2013-04-14 01:06:00,54.3,53.7,29.85,South,180,0.0,-999.0,98,-99.99,,,0.00,Acu-Link.com,2013-04-14 05:06:00,
2013-04-14 01:21:00,54.1,53.5,29.85,ESE,112,0.0,-999.0,98,-99.99,,,0.00,Acu-Link.com,2013-04-14 05:21:00,
2013-04-14 01:36:00,53.2,52.6,29.85,SSE,157,0.0,-999.0,98,-99.99,,,0.00,Acu-Link.com,2013-04-14 05:36:00,
2013-04-14 01:51:00,52.5,52.0,29.85,NW,315,0.0,-999.0,98,-99.99,,,0.00,Acu-Link.com,2013-04-14 05:51:00,
2013-04-14 02:06:00,52.0,51.5,29.85,SSE,157,0.0,-999.0,98,-99.99,,,0.00,Acu-Link.com,2013-04-14 06:06:00,
2013-04-14 02:22:00,52.2,51.7,29.85,SE,135,0.0,-999.0,98,-99.99,,,0.00,Acu-Link.com,2013-04-14 06:22:00,
2013-04-14 02:37:00,52.2,51.7,29.85,West,270,0.0,-999.0,98,-99.99,,,0.00,Acu-Link.com,2013-04-14 06:37:00,
2013-04-14 02:52:00,51.3,50.8,29.86,SSE,157,0.0,-999.0,98,-99.99,,,0.00,Acu-Link.com,2013-04-14 06:52:00,
2013-04-14 03:07:00,51.3,50.8,29.85,SSE,157,0.0,-999.0,98,-99.99,,,0.00,Acu-Link.com,2013-04-14 07:07:00,
2013-04-14 03:22:00,50.7,50.2,29.85,NNE,22,0.0,-999.0,98,-99.99,,,0.00,Acu-Link.com,2013-04-14 07:22:00,
2013-04-14 03:37:00,50.7,50.2,29.85,NNW,337,0.0,-999.0,98,-99.99,,,0.00,Acu-Link.com,2013-04-14 07:37:00,
2013-04-14 03:52:00,50.5,50.0,29.86,ESE,112,0.0,-999.0,98,-99.99,,,0.00,Acu-Link.com,2013-04-14 07:52:00,
2013-04-14 04:08:00,50.5,50.0,29.85,NE,45,0.0,-999.0,98,-99.99,,,0.00,Acu-Link.com,2013-04-14 08:08:00,
2013-04-14 04:23:00,50.2,49.7,29.85,ESE,112,0.0,-999.0,98,-99.99,,,0.00,Acu-Link.com,2013-04-14 08:23:00,
2013-04-14 04:38:00,49.6,49.1,29.86,NW,315,0.0,-999.0,98,-99.99,,,0.00,Acu-Link.com,2013-04-14 08:38:00,
2013-04-14 04:54:00,49.1,48.6,29.86,SSW,202,0.0,-999.0,98,-99.99,,,0.00,Acu-Link.com,2013-04-14 08:54:00,
2013-04-14 05:09:00,48.7,48.2,29.87,SW,225,0.0,-999.0,98,-99.99,,,0.00,Acu-Link.com,2013-04-14 09:09:00,
2013-04-14 05:24:00,48.4,47.9,29.87,WNW,292,0.0,-999.0,98,-99.99,,,0.00,Acu-Link.com,2013-04-14 09:24:00,
2013-04-14 05:39:00,48.0,47.5,29.87,NW,315,0.0,-999.0,98,-99.99,,,0.00,Acu-Link.com,2013-04-14 09:39:00,
2013-04-14 05:54:00,48.2,47.7,29.87,NW,315,0.0,-999.0,98,-99.99,,,0.00,Acu-Link.com,2013-04-14 09:54:00,
2013-04-14 06:09:00,48.0,47.5,29.88,ESE,112,0.0,-999.0,98,-99.99,,,0.00,Acu-Link.com,2013-04-14 10:09:00,
2013-04-14 06:25:00,47.5,47.0,29.89,SSW,202,0.0,-999.0,98,-99.99,,,0.00,Acu-Link.com,2013-04-14 10:25:00,
2013-04-14 06:40:00,47.1,46.6,29.89,NW,315,0.0,-999.0,98,-99.99,,,0.00,Acu-Link.com,2013-04-14 10:40:00,
2013-04-14 06:55:00,46.9,46.4,29.90,South,180,0.0,-999.0,98,-99.99,,,0.00,Acu-Link.com,2013-04-14 10:55:00,
2013-04-14 07:10:00,47.3,46.8,29.91,South,180,0.0,-999.0,98,-99.99,,,0.00,Acu-Link.com,2013-04-14 11:10:00,
2013-04-14 07:25:00,47.8,47.3,29.90,South,180,0.0,-999.0,98,-99.99,,,0.00,Acu-Link.com,2013-04-14 11:25:00,
2013-04-14 07:40:00,49.6,49.1,29.92,NW,315,0.0,-999.0,98,-99.99,,,0.00,Acu-Link.com,2013-04-14 11:40:00,
2013-04-14 07:55:00,51.3,50.8,29.92,NNE,22,0.0,-999.0,98,-99.99,,,0.00,Acu-Link.com,2013-04-14 11:55:00,
2013-04-14 08:10:00,53.1,52.5,29.93,NNW,337,0.0,-999.0,98,-99.99,,,0.00,Acu-Link.com,2013-04-14 12:10:00,
2013-04-14 08:25:00,55.8,55.2,29.93,NNE,22,0.0,-999.0,98,-99.99,,,0.00,Acu-Link.com,2013-04-14 12:25:00,
2013-04-14 08:41:00,59.2,58.6,29.93,NNW,337,0.0,-999.0,98,-99.99,,,0.00,Acu-Link.com,2013-04-14 12:41:00,
2013-04-14 08:56:00,62.2,61.3,29.93,NNE,22,0.0,-999.0,97,-99.99,,,0.00,Acu-Link.com,2013-04-14 12:56:00,
2013-04-14 09:26:00,66.6,54.9,29.93,ENE,67,1.1,-999.0,66,-99.99,,,0.00,Acu-Link.com,2013-04-14 13:26:00,
2013-04-14 09:41:00,69.3,53.9,29.93,NNE,22,0.0,-999.0,58,-99.99,,,0.00,Acu-Link.com,2013-04-14 13:41:00,
2013-04-14 09:56:00,72.0,49.5,29.93,NE,45,1.7,-999.0,45,-99.99,,,0.00,Acu-Link.com,2013-04-14 13:56:00,
2013-04-14 10:11:00,72.7,48.3,29.93,WNW,292,1.7,-999.0,42,-99.99,,,0.00,Acu-Link.com,2013-04-14 14:11:00,
2013-04-14 10:41:00,75.0,49.0,29.94,NNE,22,1.7,-999.0,40,-99.99,,,0.00,Acu-Link.com,2013-04-14 14:41:00,
2013-04-14 11:12:00,78.3,43.4,29.93,West,270,0.0,-999.0,29,-99.99,,,0.00,Acu-Link.com,2013-04-14 15:12:00,
2013-04-14 11:27:00,79.2,47.6,29.92,SSE,157,1.1,-999.0,33,-99.99,,,0.00,Acu-Link.com,2013-04-14 15:27:00,
2013-04-14 11:42:00,78.6,45.4,29.92,SSE,157,1.1,-999.0,31,-99.99,,,0.00,Acu-Link.com,2013-04-14 15:42:00,
2013-04-14 11:57:00,79.5,44.4,29.91,ESE,112,2.2,-999.0,29,-99.99,,,0.00,Acu-Link.com,2013-04-14 15:57:00,
2013-04-14 12:12:00,79.5,46.2,29.90,SSE,157,0.0,-999.0,31,-99.99,,,0.00,Acu-Link.com,2013-04-14 16:12:00,
2013-04-14 12:27:00,79.9,46.5,29.91,South,180,0.0,-999.0,31,-99.99,,,0.00,Acu-Link.com,2013-04-14 16:27:00,
2013-04-14 12:42:00,80.2,44.1,29.91,SSE,157,3.7,-999.0,28,-99.99,,,0.00,Acu-Link.com,2013-04-14 16:42:00,
2013-04-14 12:57:00,80.1,43.1,29.90,NW,315,0.0,-999.0,27,-99.99,,,0.00,Acu-Link.com,2013-04-14 16:57:00,
2013-04-14 13:12:00,79.2,43.3,29.90,East,90,1.7,-999.0,28,-99.99,,,0.00,Acu-Link.com,2013-04-14 17:12:00,
2013-04-14 13:28:00,80.4,42.4,29.90,SSE,157,1.7,-999.0,26,-99.99,,,0.00,Acu-Link.com,2013-04-14 17:28:00,
2013-04-14 13:43:00,79.7,46.4,29.89,SSE,157,1.7,-999.0,31,-99.99,,,0.00,Acu-Link.com,2013-04-14 17:43:00,
2013-04-14 13:58:00,81.5,43.3,29.89,South,180,2.7,-999.0,26,-99.99,,,0.00,Acu-Link.com,2013-04-14 17:58:00,
2013-04-14 14:13:00,81.0,42.9,29.88,SE,135,3.2,-999.0,26,-99.99,,,0.00,Acu-Link.com,2013-04-14 18:13:00,
2013-04-14 14:28:00,81.9,48.3,29.88,NNE,22,1.7,-999.0,31,-99.99,,,0.00,Acu-Link.com,2013-04-14 18:28:00,
2013-04-14 14:43:00,81.3,45.1,29.88,ESE,112,2.2,-999.0,28,-99.99,,,0.00,Acu-Link.com,2013-04-14 18:43:00,
2013-04-14 14:58:00,80.4,43.3,29.87,ESE,112,1.7,-999.0,27,-99.99,,,0.00,Acu-Link.com,2013-04-14 18:58:00,
2013-04-14 15:13:00,79.7,44.6,29.86,West,270,0.0,-999.0,29,-99.99,,,0.00,Acu-Link.com,2013-04-14 19:13:00,
2013-04-14 15:28:00,80.2,47.6,29.86,NNE,22,1.7,-999.0,32,-99.99,,,0.00,Acu-Link.com,2013-04-14 19:28:00,
2013-04-14 15:44:00,79.0,47.4,29.85,SE,135,0.0,-999.0,33,-99.99,,,0.00,Acu-Link.com,2013-04-14 19:44:00,
2013-04-14 15:59:00,78.4,48.5,29.85,SSE,157,1.7,-999.0,35,-99.99,,,0.00,Acu-Link.com,2013-04-14 19:59:00,
2013-04-14 16:14:00,78.4,47.7,29.84,NNE,22,0.0,-999.0,34,-99.99,,,0.00,Acu-Link.com,2013-04-14 20:14:00,
2013-04-14 16:29:00,77.9,46.5,29.85,South,180,1.7,-999.0,33,-99.99,,,0.00,Acu-Link.com,2013-04-14 20:29:00,
2013-04-14 16:44:00,77.4,48.3,29.85,SE,135,1.7,-999.0,36,-99.99,,,0.00,Acu-Link.com,2013-04-14 20:44:00,
2013-04-14 16:59:00,77.5,48.4,29.85,South,180,0.0,-999.0,36,-99.99,,,0.00,Acu-Link.com,2013-04-14 20:59:00,
2013-04-14 17:14:00,78.3,49.9,29.85,SSE,157,1.1,-999.0,37,-99.99,,,0.00,Acu-Link.com,2013-04-14 21:14:00,
2013-04-14 17:29:00,77.5,49.2,29.86,NE,45,1.7,-999.0,37,-99.99,,,0.00,Acu-Link.com,2013-04-14 21:29:00,
2013-04-14 17:44:00,77.0,47.2,29.87,West,270,0.0,-999.0,35,-99.99,,,0.00,Acu-Link.com,2013-04-14 21:44:00,
2013-04-14 18:00:00,76.3,48.8,29.86,ESE,112,0.0,-999.0,38,-99.99,,,0.00,Acu-Link.com,2013-04-14 22:00:00,
2013-04-14 18:15:00,75.6,48.2,29.86,East,90,0.0,-999.0,38,-99.99,,,0.00,Acu-Link.com,2013-04-14 22:15:00,
2013-04-14 18:30:00,74.8,48.8,29.87,SSE,157,0.0,-999.0,40,-99.99,,,0.00,Acu-Link.com,2013-04-14 22:30:00,
2013-04-14 18:45:00,74.3,50.3,29.87,SE,135,0.0,-999.0,43,-99.99,,,0.00,Acu-Link.com,2013-04-14 22:45:00,
2013-04-14 19:00:00,73.4,51.9,29.88,SSE,157,0.0,-999.0,47,-99.99,,,0.00,Acu-Link.com,2013-04-14 23:00:00,
2013-04-14 19:15:00,72.5,51.1,29.88,SSE,157,0.0,-999.0,47,-99.99,,,0.00,Acu-Link.com,2013-04-14 23:15:00,
2013-04-14 19:30:00,72.1,51.9,29.86,South,180,1.7,-999.0,49,-99.99,,,0.00,Acu-Link.com,2013-04-14 23:30:00,
2013-04-14 19:45:00,71.4,52.8,29.87,SSE,157,0.0,-999.0,52,-99.99,,,0.00,Acu-Link.com,2013-04-14 23:45:00,
2013-04-14 20:00:00,70.9,54.4,29.87,South,180,0.0,-999.0,56,-99.99,,,0.00,Acu-Link.com,2013-04-15 00:00:00,
2013-04-14 20:16:00,70.3,56.2,29.86,SW,225,0.0,-999.0,61,-99.99,,,0.00,Acu-Link.com,2013-04-15 00:16:00,
2013-04-14 20:31:00,70.2,59.5,29.86,ESE,112,0.0,-999.0,69,-99.99,,,0.00,Acu-Link.com,2013-04-15 00:31:00,
2013-04-14 21:31:00,68.4,67.8,29.87,SSE,157,1.7,-999.0,98,-99.99,,,0.00,Acu-Link.com,2013-04-15 01:31:00,
2013-04-14 22:01:00,68.0,67.4,29.86,East,90,0.0,-999.0,98,-99.99,,,0.00,Acu-Link.com,2013-04-15 02:01:00,
2013-04-14 22:16:00,68.0,67.4,29.85,SE,135,0.0,-999.0,98,-99.99,,,0.00,Acu-Link.com,2013-04-15 02:16:00,
2013-04-14 22:31:00,67.5,66.9,29.85,ESE,112,1.7,-999.0,98,-99.99,,,0.00,Acu-Link.com,2013-04-15 02:31:00,
2013-04-14 22:47:00,67.3,66.7,29.86,WNW,292,0.0,-999.0,98,-99.99,,,0.00,Acu-Link.com,2013-04-15 02:47:00,
2013-04-14 23:02:00,66.7,66.1,29.85,SSE,157,1.1,-999.0,98,-99.99,,,0.00,Acu-Link.com,2013-04-15 03:02:00,
2013-04-14 23:17:00,66.2,65.6,29.86,SSE,157,0.0,-999.0,98,-99.99,,,0.00,Acu-Link.com,2013-04-15 03:17:00,
2013-04-14 23:32:00,65.7,65.1,29.87,ESE,112,0.0,-999.0,98,-99.99,,,0.00,Acu-Link.com,2013-04-15 03:32:00,
2013-04-14 23:47:00,64.9,64.3,29.89,ESE,112,1.1,-999.0,98,-99.99,,,0.00,Acu-Link.com,2013-04-15 03:47:00,